Time;durP1;ratioP1;P1;durP2;ratioP2;P2;SDS_P1;SDS_P2;PMS_P1;PMS_P2;Temp;Humidity;BMP_temperature;BMP_pressure;BME280_temperature;BME280_humidity;BME280_pressure;Samples;Min_cycle;Max_cycle;Signal;HPM_P1;HPM_P2
2021/05/12 00:02:04;;;;;;;12.35;4.85;;;;;;;;;;4930754;29;20074;-53
2021/05/12 00:04:30;;;;;;;7.75;4.55;;;;;;;;;;4929696;29;20629;-56
2021/05/12 00:06:57;;;;;;;10.35;4.60;;;;;;;;;;4924503;29;20127;-55
2021/05/12 00:09:24;;;;;;;14.70;5.00;;;;;;;;;;4927767;29;20050;-55
2021/05/12 00:11:51;;;;;;;9.73;4.43;;;;;;;;;;4923893;29;20035;-52
2021/05/12 00:14:18;;;;;;;11.40;4.38;;;;;;;;;;4930150;29;20122;-55
2021/05/12 00:16:44;;;;;;;9.80;4.28;;;;;;;;;;4927393;29;20136;-55
2021/05/12 00:19:12;;;;;;;8.88;4.80;;;;;;;;;;4926231;29;20070;-54
2021/05/12 00:21:46;;;;;;;11.32;4.53;;;;;;;;;;4925014;29;20071;-55
2021/05/12 00:24:13;;;;;;;12.18;4.70;;;;;;;;;;4924378;29;20132;-55
2021/05/12 00:26:43;;;;;;;13.93;4.70;;;;;;;;;;4909767;29;20381;-55
2021/05/12 00:29:14;;;;;;;12.60;4.60;;;;;;;;;;4923713;29;20043;-56
2021/05/12 00:31:42;;;;;;;9.68;4.80;;;;;;;;;;4924985;29;20059;-55
2021/05/12 00:34:08;;;;;;;14.05;5.35;;;;;;;;;;4922294;29;20051;-54
2021/05/12 00:36:36;;;;;;;8.52;4.45;;;;;;;;;;4928474;29;20103;-55
2021/05/12 00:39:04;;;;;;;9.63;4.88;;;;;;;;;;4920504;29;20552;-55
2021/05/12 00:41:31;;;;;;;10.45;5.50;;;;;;;;;;4925611;29;20051;-54
2021/05/12 00:43:58;;;;;;;11.85;5.50;;;;;;;;;;4929860;29;20031;-56
2021/05/12 00:46:24;;;;;;;13.40;5.20;;;;;;;;;;4923580;29;20596;-56
2021/05/12 00:48:55;;;;;;;8.98;4.50;;;;;;;;;;4925691;29;20039;-54
2021/05/12 00:51:21;;;;;;;11.13;5.03;;;;;;;;;;4920671;29;20099;-55
2021/05/12 00:53:48;;;;;;;11.50;5.18;;;;;;;;;;4916211;29;20051;-56
2021/05/12 00:56:15;;;;;;;8.75;4.78;;;;;;;;;;4922216;29;20130;-55
2021/05/12 00:58:41;;;;;;;9.60;4.95;;;;;;;;;;4918962;29;20099;-54
2021/05/12 01:01:10;;;;;;;9.38;5.03;;;;;;;;;;4922354;29;20494;-54
2021/05/12 01:03:36;;;;;;;9.53;4.80;;;;;;;;;;4924690;29;20040;-56
2021/05/12 01:06:03;;;;;;;11.90;5.60;;;;;;;;;;4922100;29;20032;-52
2021/05/12 01:08:30;;;;;;;10.70;5.00;;;;;;;;;;4929512;29;20419;-54
2021/05/12 01:10:57;;;;;;;12.85;4.80;;;;;;;;;;4924185;29;20050;-56
2021/05/12 01:13:25;;;;;;;11.43;5.10;;;;;;;;;;4909827;29;20044;-56
2021/05/12 01:15:52;;;;;;;11.52;5.00;;;;;;;;;;4925238;29;20051;-53
2021/05/12 01:18:20;;;;;;;13.52;4.93;;;;;;;;;;4925330;29;20083;-53
2021/05/12 01:20:54;;;;;;;12.18;4.93;;;;;;;;;;4922499;29;20135;-55
2021/05/12 01:23:23;;;;;;;10.10;4.72;;;;;;;;;;4924415;29;20079;-55
2021/05/12 01:25:51;;;;;;;19.63;4.97;;;;;;;;;;4906517;29;20050;-54
2021/05/12 01:28:18;;;;;;;7.38;4.22;;;;;;;;;;4918647;29;20575;-53
2021/05/12 01:31:01;;;;;;;11.43;5.18;;;;;;;;;;4918962;29;20054;-55
2021/05/12 01:33:29;;;;;;;7.65;4.25;;;;;;;;;;4918464;29;20127;-55
2021/05/12 01:35:58;;;;;;;11.20;4.75;;;;;;;;;;4927600;29;20036;-55
2021/05/12 01:38:26;;;;;;;7.85;5.10;;;;;;;;;;4927706;29;20063;-54
2021/05/12 01:40:53;;;;;;;11.02;4.85;;;;;;;;;;4927331;29;20055;-55
2021/05/12 01:43:20;;;;;;;9.93;4.93;;;;;;;;;;4923966;29;20059;-55
2021/05/12 01:45:47;;;;;;;12.63;4.77;;;;;;;;;;4924737;29;20122;-55
2021/05/12 01:48:15;;;;;;;7.95;4.65;;;;;;;;;;4924266;29;20052;-55
2021/05/12 01:50:42;;;;;;;11.25;4.63;;;;;;;;;;4926990;29;20058;-56
2021/05/12 01:53:11;;;;;;;7.57;4.45;;;;;;;;;;4926657;29;20035;-52
2021/05/12 01:55:38;;;;;;;12.07;4.82;;;;;;;;;;4930811;29;20480;-54
2021/05/12 01:58:05;;;;;;;9.73;4.30;;;;;;;;;;4921330;29;20110;-55
2021/05/12 02:00:35;;;;;;;7.57;4.32;;;;;;;;;;4930468;29;20043;-55
2021/05/12 02:03:07;;;;;;;7.80;3.90;;;;;;;;;;4923934;29;20040;-55
2021/05/12 02:05:35;;;;;;;10.48;4.47;;;;;;;;;;4926316;29;20120;-55
2021/05/12 02:08:04;;;;;;;9.13;4.82;;;;;;;;;;4923774;29;20493;-53
2021/05/12 02:10:30;;;;;;;8.05;4.60;;;;;;;;;;4929903;29;20040;-56
2021/05/12 02:12:57;;;;;;;10.47;4.47;;;;;;;;;;4925763;29;20408;-56
2021/05/12 02:15:25;;;;;;;;;;;;;;;;;;4924661;29;20048;-55
2021/05/12 02:17:52;;;;;;;6.13;4.10;;;;;;;;;;4929728;29;19945;-55
2021/05/12 02:20:26;;;;;;;8.52;4.68;;;;;;;;;;4926629;29;20111;-54
2021/05/12 02:22:52;;;;;;;9.88;4.57;;;;;;;;;;4922448;29;20043;-55
2021/05/12 02:25:19;;;;;;;9.10;4.50;;;;;;;;;;4913239;29;20575;-52
2021/05/12 02:27:46;;;;;;;9.73;4.57;;;;;;;;;;4925073;29;20504;-54
2021/05/12 02:30:13;;;;;;;8.60;4.23;;;;;;;;;;4928373;29;20437;-56
2021/05/12 02:32:40;;;;;;;;;;;;;;;;;;4925503;29;20060;-56
2021/05/12 02:35:08;;;;;;;7.70;4.18;;;;;;;;;;4927050;29;19923;-55
2021/05/12 02:37:35;;;;;;;6.13;4.13;;;;;;;;;;4925832;29;20075;-56
2021/05/12 02:40:04;;;;;;;12.65;4.70;;;;;;;;;;4929889;29;20043;-55
2021/05/12 02:42:30;;;;;;;7.07;4.50;;;;;;;;;;4927041;29;20708;-56
2021/05/12 02:44:57;;;;;;;8.15;4.10;;;;;;;;;;4930491;29;20127;-54
2021/05/12 02:47:24;;;;;;;6.60;4.35;;;;;;;;;;4925306;29;20040;-55
2021/05/12 02:49:51;;;;;;;10.90;4.18;;;;;;;;;;4923806;29;20043;-55
2021/05/12 02:52:18;;;;;;;5.70;4.22;;;;;;;;;;4927158;29;20044;-56
2021/05/12 02:54:45;;;;;;;8.30;4.43;;;;;;;;;;4923308;29;20043;-56
2021/05/12 02:57:12;;;;;;;8.00;4.60;;;;;;;;;;4923696;29;20088;-51
2021/05/12 02:59:39;;;;;;;7.57;4.30;;;;;;;;;;4928686;29;20051;-54
2021/05/12 03:02:06;;;;;;;6.88;4.50;;;;;;;;;;4926580;29;20079;-55
2021/05/12 03:04:33;;;;;;;11.37;4.93;;;;;;;;;;4925140;29;20051;-55
2021/05/12 03:07:00;;;;;;;10.40;4.57;;;;;;;;;;4922406;29;20044;-55
2021/05/12 03:09:27;;;;;;;8.10;4.50;;;;;;;;;;4924485;29;20063;-55
2021/05/12 03:11:54;;;;;;;10.25;4.82;;;;;;;;;;4923181;29;20044;-55
2021/05/12 03:14:21;;;;;;;7.70;4.40;;;;;;;;;;4924017;29;20071;-56
2021/05/12 03:16:47;;;;;;;9.95;5.28;;;;;;;;;;4921908;29;20464;-55
2021/05/12 03:19:16;;;;;;;11.40;5.43;;;;;;;;;;4923701;29;20039;-56
2021/05/12 03:21:43;;;;;;;13.45;4.93;;;;;;;;;;4924654;29;20055;-55
2021/05/12 03:24:10;;;;;;;6.72;4.85;;;;;;;;;;4925379;29;20074;-55
2021/05/12 03:26:36;;;;;;;10.83;5.20;;;;;;;;;;4930844;29;20052;-56
2021/05/12 03:29:04;;;;;;;9.60;4.90;;;;;;;;;;4926049;29;20287;-56
2021/05/12 03:31:31;;;;;;;10.60;5.32;;;;;;;;;;4928186;29;20063;-51
2021/05/12 03:33:58;;;;;;;8.73;5.17;;;;;;;;;;4926893;29;20105;-54
2021/05/12 03:36:24;;;;;;;9.70;5.18;;;;;;;;;;4920709;29;20048;-55
2021/05/12 03:38:51;;;;;;;13.48;5.30;;;;;;;;;;4931431;29;20062;-54
2021/05/12 03:41:19;;;;;;;7.78;4.63;;;;;;;;;;4924762;29;20055;-54
2021/05/12 03:43:45;;;;;;;6.43;4.43;;;;;;;;;;4925002;29;20060;-55
2021/05/12 03:46:12;;;;;;;9.65;5.07;;;;;;;;;;4923470;29;20308;-55
2021/05/12 03:48:39;;;;;;;8.48;4.45;;;;;;;;;;4925910;29;20395;-52
2021/05/12 03:51:06;;;;;;;12.38;5.38;;;;;;;;;;4924806;29;20107;-55
2021/05/12 03:53:32;;;;;;;7.65;5.03;;;;;;;;;;4923696;29;20712;-54
2021/05/12 03:55:59;;;;;;;7.50;4.60;;;;;;;;;;4915235;29;20048;-53
2021/05/12 03:58:25;;;;;;;7.03;4.72;;;;;;;;;;4921766;29;20046;-54
2021/05/12 04:00:53;;;;;;;12.13;4.33;;;;;;;;;;4924519;29;20048;-53
2021/05/12 04:03:20;;;;;;;8.00;4.47;;;;;;;;;;4926503;29;20115;-54
2021/05/12 04:05:46;;;;;;;9.80;4.35;;;;;;;;;;4922656;29;20052;-51
2021/05/12 04:08:13;;;;;;;11.60;4.27;;;;;;;;;;4927499;29;20048;-50
2021/05/12 04:10:40;;;;;;;6.70;4.25;;;;;;;;;;4927529;29;20074;-53
2021/05/12 04:13:06;;;;;;;12.55;4.72;;;;;;;;;;4924531;29;20503;-54
2021/05/12 04:15:33;;;;;;;7.80;4.03;;;;;;;;;;4926951;29;20043;-54
2021/05/12 04:17:59;;;;;;;8.68;3.78;;;;;;;;;;4925328;29;20044;-55
2021/05/12 04:20:26;;;;;;;7.40;4.20;;;;;;;;;;4924077;29;20088;-55
2021/05/12 04:22:53;;;;;;;11.43;4.68;;;;;;;;;;4923442;29;20075;-56
2021/05/12 04:25:22;;;;;;;11.18;5.03;;;;;;;;;;4930365;29;20715;-54
2021/05/12 04:27:49;;;;;;;6.47;3.55;;;;;;;;;;4927140;29;20140;-54
2021/05/12 04:30:18;;;;;;;8.20;4.35;;;;;;;;;;4929416;29;20048;-54
2021/05/12 04:32:45;;;;;;;7.07;3.88;;;;;;;;;;4940963;28;20083;-56
2021/05/12 04:35:12;;;;;;;9.85;3.63;;;;;;;;;;4945187;28;20098;-52
2021/05/12 04:37:40;;;;;;;6.85;4.20;;;;;;;;;;4951273;28;20126;-56
2021/05/12 04:40:08;;;;;;;4.75;3.60;;;;;;;;;;4944263;28;20380;-55
2021/05/12 04:42:34;;;;;;;8.27;4.35;;;;;;;;;;4945912;28;20122;-54
2021/05/12 04:45:03;;;;;;;9.88;3.65;;;;;;;;;;4941330;28;20047;-53
2021/05/12 04:47:30;;;;;;;6.78;3.67;;;;;;;;;;4944286;28;20558;-53
2021/05/12 04:49:57;;;;;;;7.32;3.63;;;;;;;;;;4941101;28;20047;-52
2021/05/12 04:52:23;;;;;;;6.05;3.80;;;;;;;;;;4947070;28;20134;-55
2021/05/12 04:54:50;;;;;;;9.53;3.47;;;;;;;;;;4943137;29;20375;-53
2021/05/12 04:57:17;;;;;;;6.40;3.85;;;;;;;;;;4945614;29;20204;-52
2021/05/12 04:59:43;;;;;;;8.27;4.13;;;;;;;;;;4942719;28;20051;-56
2021/05/12 05:02:12;;;;;;;5.47;3.47;;;;;;;;;;4942009;28;20039;-53
2021/05/12 05:04:40;;;;;;;6.35;3.53;;;;;;;;;;4943888;28;20039;-51
2021/05/12 05:07:08;;;;;;;7.38;3.80;;;;;;;;;;4949219;28;20047;-52
2021/05/12 05:09:35;;;;;;;;;;;;;;;;;;4931989;29;20043;-55
2021/05/12 05:12:01;;;;;;;13.45;3.90;;;;;;;;;;4949258;28;19922;-50
2021/05/12 05:14:28;;;;;;;6.35;3.55;;;;;;;;;;4951460;28;20047;-55
2021/05/12 05:16:57;;;;;;;8.63;3.53;;;;;;;;;;4948482;28;20045;-54
2021/05/12 05:19:23;;;;;;;7.47;3.50;;;;;;;;;;4939159;28;20048;-54
2021/05/12 05:21:50;;;;;;;9.07;3.78;;;;;;;;;;4932219;29;20050;-52
2021/05/12 05:24:18;;;;;;;4.50;3.17;;;;;;;;;;4944964;28;20138;-54
2021/05/12 05:26:45;;;;;;;8.50;3.97;;;;;;;;;;4944822;28;20047;-54
2021/05/12 05:29:12;;;;;;;9.53;4.00;;;;;;;;;;4944323;28;20403;-52
2021/05/12 05:31:38;;;;;;;7.65;3.97;;;;;;;;;;4944742;28;20507;-52
2021/05/12 05:34:23;;;;;;;5.75;3.38;;;;;;;;;;4947971;28;20062;-54
2021/05/12 05:37:09;;;;;;;7.03;3.88;;;;;;;;;;4948468;28;20051;-52
2021/05/12 05:39:55;;;;;;;6.45;3.25;;;;;;;;;;4950451;28;20074;-56
2021/05/12 05:42:41;;;;;;;6.38;4.07;;;;;;;;;;4946289;28;20050;-55
2021/05/12 05:45:26;;;;;;;8.07;4.28;;;;;;;;;;4950053;28;20487;-55
2021/05/12 05:48:14;;;;;;;11.60;4.50;;;;;;;;;;4951968;28;20058;-52
2021/05/12 05:50:59;;;;;;;6.65;4.13;;;;;;;;;;4943953;28;20981;-56
2021/05/12 05:53:44;;;;;;;8.45;4.20;;;;;;;;;;4945902;28;20062;-55
2021/05/12 05:56:30;;;;;;;7.65;4.68;;;;;;;;;;4948887;28;20168;-56
2021/05/12 05:59:15;;;;;;;5.30;3.88;;;;;;;;;;4946940;28;20067;-55
2021/05/12 06:02:01;;;;;;;6.47;3.63;;;;;;;;;;4948977;28;20046;-54
2021/05/12 06:04:47;;;;;;;9.32;3.75;;;;;;;;;;4946764;28;20742;-52
2021/05/12 06:07:32;;;;;;;8.00;4.05;;;;;;;;;;4945842;28;20082;-55
2021/05/12 06:10:19;;;;;;;8.95;3.83;;;;;;;;;;4947664;28;20059;-54
2021/05/12 06:13:05;;;;;;;7.82;3.67;;;;;;;;;;4946157;28;20050;-54
2021/05/12 06:15:50;;;;;;;7.65;3.75;;;;;;;;;;4949570;28;20059;-55
2021/05/12 06:18:37;;;;;;;10.88;4.20;;;;;;;;;;4948095;28;20058;-55
2021/05/12 06:21:22;;;;;;;9.90;3.90;;;;;;;;;;4943843;28;20078;-52
2021/05/12 06:24:07;;;;;;;7.63;4.18;;;;;;;;;;4951318;28;20522;-53
2021/05/12 06:26:54;;;;;;;8.70;4.30;;;;;;;;;;4947383;28;20067;-55
2021/05/12 06:29:39;;;;;;;10.13;4.43;;;;;;;;;;4942626;29;20119;-53
2021/05/12 06:32:39;;;;;;;9.80;4.07;;;;;;;;;;4928853;28;20190;-54
2021/05/12 06:35:25;;;;;;;7.68;4.03;;;;;;;;;;4946100;28;20467;-55
2021/05/12 06:38:16;;;;;;;5.38;4.05;;;;;;;;;;4946729;28;20142;-54
2021/05/12 06:40:42;;;;;;;12.43;4.87;;;;;;;;;;4948305;28;20053;-56
2021/05/12 06:43:09;;;;;;;5.50;4.70;;;;;;;;;;4950147;28;20053;-53
2021/05/12 06:45:36;;;;;;;11.55;5.07;;;;;;;;;;4947524;28;20457;-56
2021/05/12 06:48:05;;;;;;;8.18;4.40;;;;;;;;;;4950549;28;20047;-53
2021/05/12 06:50:33;;;;;;;14.48;4.10;;;;;;;;;;4953138;28;20102;-55
2021/05/12 06:53:00;;;;;;;9.88;5.25;;;;;;;;;;4948238;28;20435;-55
2021/05/12 06:55:26;;;;;;;8.47;4.43;;;;;;;;;;4931626;28;20079;-52
2021/05/12 06:57:53;;;;;;;8.33;4.37;;;;;;;;;;4947299;28;20036;-56
2021/05/12 07:00:20;;;;;;;9.43;4.75;;;;;;;;;;4946012;28;20048;-53
2021/05/12 07:02:50;;;;;;;9.65;4.18;;;;;;;;;;4940471;28;20099;-53
2021/05/12 07:05:19;;;;;;;8.85;4.03;;;;;;;;;;4937106;28;20047;-55
2021/05/12 07:07:47;;;;;;;9.38;4.70;;;;;;;;;;4944972;28;20079;-55
2021/05/12 07:10:14;;;;;;;14.93;4.60;;;;;;;;;;4947469;28;20137;-52
2021/05/12 07:12:42;;;;;;;6.13;4.18;;;;;;;;;;4949012;28;20047;-55
2021/05/12 07:15:10;;;;;;;8.93;4.70;;;;;;;;;;4943448;28;20040;-53
2021/05/12 07:17:37;;;;;;;8.45;4.40;;;;;;;;;;4937851;28;20055;-55
2021/05/12 07:20:04;;;;;;;11.70;4.60;;;;;;;;;;4946842;28;20523;-55
2021/05/12 07:22:30;;;;;;;9.27;4.35;;;;;;;;;;4950468;28;20056;-55
2021/05/12 07:24:57;;;;;;;6.35;4.30;;;;;;;;;;4952012;28;20067;-55
2021/05/12 07:27:24;;;;;;;7.03;4.45;;;;;;;;;;4942735;29;20541;-56
2021/05/12 07:29:51;;;;;;;7.20;3.97;;;;;;;;;;4947522;28;20126;-53
2021/05/12 07:32:19;;;;;;;6.70;4.03;;;;;;;;;;4950241;28;20063;-54
2021/05/12 07:34:51;;;;;;;9.23;4.85;;;;;;;;;;4944606;28;20071;-55
2021/05/12 07:37:21;;;;;;;11.75;4.50;;;;;;;;;;4947483;28;20099;-53
2021/05/12 07:39:48;;;;;;;8.75;4.05;;;;;;;;;;4952031;28;20515;-55
2021/05/12 07:42:16;;;;;;;8.52;4.38;;;;;;;;;;4943840;28;20054;-55
2021/05/12 07:44:43;;;;;;;;;;;;;;;;;;4948476;28;20087;-55
2021/05/12 07:47:11;;;;;;;8.35;4.40;;;;;;;;;;4946525;28;20398;-55
2021/05/12 07:49:38;;;;;;;8.80;4.43;;;;;;;;;;4948345;28;20061;-55
2021/05/12 07:52:12;;;;;;;6.43;4.10;;;;;;;;;;4948449;28;20051;-55
2021/05/12 07:54:40;;;;;;;9.20;4.38;;;;;;;;;;4947213;28;20074;-55
2021/05/12 07:57:07;;;;;;;5.90;4.43;;;;;;;;;;4948338;28;20062;-55
2021/05/12 07:59:33;;;;;;;11.32;4.45;;;;;;;;;;4931929;29;20051;-54
2021/05/12 08:02:04;;;;;;;10.00;4.63;;;;;;;;;;4945606;28;20098;-55
2021/05/12 08:04:31;;;;;;;9.00;3.75;;;;;;;;;;4945945;28;20044;-55
2021/05/12 08:06:58;;;;;;;8.70;4.25;;;;;;;;;;4948202;28;20069;-52
2021/05/12 08:09:27;;;;;;;10.63;4.13;;;;;;;;;;4944278;28;20047;-55
2021/05/12 08:11:54;;;;;;;13.40;3.80;;;;;;;;;;4942460;28;20570;-52
2021/05/12 08:14:20;;;;;;;7.25;3.38;;;;;;;;;;4945988;28;20056;-51
2021/05/12 08:16:47;;;;;;;9.13;4.43;;;;;;;;;;4946006;28;20039;-53
2021/05/12 08:19:15;;;;;;;10.23;3.90;;;;;;;;;;4942451;28;20122;-54
2021/05/12 08:21:46;;;;;;;8.82;3.97;;;;;;;;;;4946120;28;20505;-55
2021/05/12 08:24:13;;;;;;;7.90;3.47;;;;;;;;;;4952757;28;20102;-55
2021/05/12 08:26:39;;;;;;;9.00;3.60;;;;;;;;;;4943413;28;20103;-53
2021/05/12 08:29:07;;;;;;;8.82;4.15;;;;;;;;;;4943950;29;20137;-55
2021/05/12 08:31:34;;;;;;;9.55;4.22;;;;;;;;;;4935339;28;20143;-55
2021/05/12 08:34:01;;;;;;;10.70;4.10;;;;;;;;;;4926121;29;20040;-53
2021/05/12 08:36:32;;;;;;;7.03;3.95;;;;;;;;;;4926536;29;20138;-55
2021/05/12 08:39:04;;;;;;;9.77;4.30;;;;;;;;;;4915323;29;20044;-53
2021/05/12 08:41:34;;;;;;;10.23;3.67;;;;;;;;;;4925993;29;20116;-53
2021/05/12 08:44:04;;;;;;;7.47;4.00;;;;;;;;;;4920365;29;20051;-55
2021/05/12 08:46:31;;;;;;;8.55;3.92;;;;;;;;;;4926578;29;20046;-55
2021/05/12 08:48:59;;;;;;;8.18;4.10;;;;;;;;;;4926265;29;20048;-58
2021/05/12 08:51:26;;;;;;;7.53;3.95;;;;;;;;;;4921695;29;20066;-54
2021/05/12 08:53:54;;;;;;;12.98;4.22;;;;;;;;;;4928687;29;20075;-55
2021/05/12 08:56:21;;;;;;;8.25;4.25;;;;;;;;;;4926081;29;20172;-55
2021/05/12 08:58:58;;;;;;;8.98;3.72;;;;;;;;;;4928858;29;20047;-55
2021/05/12 09:01:25;;;;;;;10.00;4.10;;;;;;;;;;4925556;29;20579;-55
2021/05/12 09:03:52;;;;;;;8.95;4.38;;;;;;;;;;4922732;29;20044;-55
2021/05/12 09:06:18;;;;;;;6.87;3.70;;;;;;;;;;4927146;29;20656;-54
2021/05/12 09:08:47;;;;;;;9.65;4.07;;;;;;;;;;4926461;29;20280;-55
2021/05/12 09:11:14;;;;;;;10.00;4.20;;;;;;;;;;4922573;29;20048;-54
2021/05/12 09:13:47;;;;;;;8.27;4.17;;;;;;;;;;4927363;29;20047;-56
2021/05/12 09:16:29;;;;;;;9.75;3.95;;;;;;;;;;4924789;29;20051;-55
2021/05/12 09:19:06;;;;;;;6.07;3.95;;;;;;;;;;4924440;29;20111;-58
2021/05/12 09:21:50;;;;;;;6.68;3.88;;;;;;;;;;4928641;29;20066;-53
2021/05/12 09:24:18;;;;;;;9.02;3.70;;;;;;;;;;4926438;29;20103;-55
2021/05/12 09:26:46;;;;;;;10.73;3.90;;;;;;;;;;4928124;29;20048;-56
2021/05/12 09:29:20;;;;;;;6.40;3.80;;;;;;;;;;4926436;29;20047;-54
2021/05/12 09:31:47;;;;;;;6.13;3.90;;;;;;;;;;4925884;29;20063;-55
2021/05/12 09:34:15;;;;;;;6.30;3.80;;;;;;;;;;4925986;29;20392;-55
2021/05/12 09:36:42;;;;;;;11.20;4.20;;;;;;;;;;4922633;29;20408;-53
2021/05/12 09:39:10;;;;;;;8.68;3.90;;;;;;;;;;4931197;29;20036;-55
2021/05/12 09:41:37;;;;;;;13.13;4.20;;;;;;;;;;4930635;29;20056;-52
2021/05/12 09:44:06;;;;;;;7.68;3.90;;;;;;;;;;4927263;29;20048;-55
2021/05/12 09:46:34;;;;;;;9.68;4.40;;;;;;;;;;4925539;29;20051;-54
2021/05/12 09:49:01;;;;;;;7.55;4.07;;;;;;;;;;4923019;29;20073;-54
2021/05/12 09:51:29;;;;;;;9.27;4.40;;;;;;;;;;4921139;29;20051;-54
2021/05/12 09:54:02;;;;;;;7.75;4.43;;;;;;;;;;4928504;29;20838;-54
2021/05/12 09:56:38;;;;;;;7.47;3.80;;;;;;;;;;4924362;29;20048;-54
2021/05/12 09:59:08;;;;;;;9.90;3.95;;;;;;;;;;4909574;29;20083;-55
2021/05/12 10:01:41;;;;;;;9.18;4.07;;;;;;;;;;4923632;29;20336;-53
2021/05/12 10:04:22;;;;;;;10.35;3.92;;;;;;;;;;4923511;29;20059;-53
2021/05/12 10:06:50;;;;;;;7.97;4.10;;;;;;;;;;4908019;29;20055;-54
2021/05/12 10:09:18;;;;;;;12.73;3.90;;;;;;;;;;4926312;29;20059;-55
2021/05/12 10:12:04;;;;;;;6.78;3.80;;;;;;;;;;4923200;29;20048;-55
2021/05/12 10:14:33;;;;;;;6.55;3.70;;;;;;;;;;4928399;29;20404;-54
2021/05/12 10:17:04;;;;;;;10.50;4.18;;;;;;;;;;4920133;29;20415;-53
2021/05/12 10:19:31;;;;;;;9.25;3.90;;;;;;;;;;4926795;29;20052;-52
2021/05/12 10:22:00;;;;;;;5.70;3.97;;;;;;;;;;4921508;29;20040;-54
2021/05/12 10:24:27;;;;;;;8.68;3.88;;;;;;;;;;4923766;29;20048;-55
2021/05/12 10:26:53;;;;;;;4.88;3.58;;;;;;;;;;4928947;29;20074;-54
2021/05/12 10:29:21;;;;;;;5.00;3.50;;;;;;;;;;4930193;29;20048;-54
2021/05/12 10:31:48;;;;;;;9.77;4.55;;;;;;;;;;4924935;29;20143;-53
2021/05/12 10:34:16;;;;;;;6.65;3.97;;;;;;;;;;4928019;29;20095;-55
2021/05/12 10:36:43;;;;;;;8.38;4.00;;;;;;;;;;4930144;29;20134;-55
2021/05/12 10:39:10;;;;;;;10.53;4.10;;;;;;;;;;4931968;29;20048;-55
2021/05/12 10:41:37;;;;;;;11.48;3.97;;;;;;;;;;4928965;29;20058;-55
2021/05/12 10:44:26;;;;;;;10.55;3.97;;;;;;;;;;4930085;29;20061;-55
2021/05/12 10:47:10;;;;;;;8.90;4.10;;;;;;;;;;4926912;29;20071;-55
2021/05/12 10:49:38;;;;;;;8.27;3.70;;;;;;;;;;4921539;29;20489;-54
2021/05/12 10:52:06;;;;;;;14.15;4.63;;;;;;;;;;4927850;29;20144;-55
2021/05/12 10:54:37;;;;;;;6.15;3.85;;;;;;;;;;4928100;29;20047;-56
2021/05/12 10:57:04;;;;;;;6.57;3.92;;;;;;;;;;4924934;29;20118;-55
2021/05/12 10:59:30;;;;;;;7.68;4.13;;;;;;;;;;4929816;29;20060;-56
2021/05/12 11:01:57;;;;;;;7.93;4.00;;;;;;;;;;4924865;29;20084;-56
2021/05/12 11:04:25;;;;;;;;;;;;;;;;;;4929483;29;20150;-56
2021/05/12 11:06:55;;;;;;;7.50;4.18;;;;;;;;;;4927635;29;19927;-55
2021/05/12 11:09:48;;;;;;;12.60;5.47;;;;;;;;;;4926014;29;20071;-56
2021/05/12 11:12:17;;;;;;;14.77;6.20;;;;;;;;;;4925158;29;20122;-55
2021/05/12 11:14:57;;;;;;;14.35;6.82;;;;;;;;;;4926620;29;20051;-53
2021/05/12 11:17:43;;;;;;;9.95;5.57;;;;;;;;;;4926160;29;20048;-56
2021/05/12 11:20:16;;;;;;;8.80;5.55;;;;;;;;;;4924142;29;20448;-56
2021/05/12 11:22:45;;;;;;;9.13;5.03;;;;;;;;;;4932784;29;20496;-56
2021/05/12 11:33:28;;;;;;;11.73;5.78;;;;;;;;;;4929001;29;20044;-56
2021/05/12 11:35:59;;;;;;;13.27;5.10;;;;;;;;;;4928206;29;20091;-56
2021/05/12 11:38:26;;;;;;;12.60;5.15;;;;;;;;;;4927176;29;20047;-55
2021/05/12 11:41:06;;;;;;;8.47;4.20;;;;;;;;;;4926540;29;20055;-56
2021/05/12 11:43:41;;;;;;;8.48;4.10;;;;;;;;;;4930155;29;20295;-56
2021/05/12 11:46:13;;;;;;;8.07;3.95;;;;;;;;;;4923980;29;20101;-56
2021/05/12 11:48:41;;;;;;;8.75;4.47;;;;;;;;;;4931067;29;20103;-56
2021/05/12 11:51:08;;;;;;;11.20;4.43;;;;;;;;;;4929796;29;20043;-55
2021/05/12 11:53:35;;;;;;;9.13;4.35;;;;;;;;;;4920452;29;20674;-55
2021/05/12 11:56:05;;;;;;;8.23;4.57;;;;;;;;;;4925850;29;20142;-57
2021/05/12 11:58:31;;;;;;;7.72;4.20;;;;;;;;;;4925198;29;20482;-57
2021/05/12 12:01:05;;;;;;;10.47;4.07;;;;;;;;;;4924434;29;20504;-57
2021/05/12 12:03:46;;;;;;;9.27;4.50;;;;;;;;;;4926813;29;20414;-57
2021/05/12 12:06:12;;;;;;;10.18;4.13;;;;;;;;;;4924010;29;20099;-57
2021/05/12 12:08:40;;;;;;;8.38;4.47;;;;;;;;;;4923955;29;20545;-57
2021/05/12 12:11:16;;;;;;;6.93;4.10;;;;;;;;;;4921761;29;20047;-57
2021/05/12 12:13:44;;;;;;;7.50;4.45;;;;;;;;;;4930350;29;20303;-57
2021/05/12 12:16:11;;;;;;;9.60;4.25;;;;;;;;;;4927927;29;20514;-57
2021/05/12 12:18:39;;;;;;;12.90;4.63;;;;;;;;;;4924336;29;20055;-57
2021/05/12 12:21:06;;;;;;;8.10;4.18;;;;;;;;;;4922820;29;20602;-57
2021/05/12 12:23:35;;;;;;;6.07;4.65;;;;;;;;;;4920656;29;20445;-57
2021/05/12 12:26:16;;;;;;;8.65;4.10;;;;;;;;;;4926675;29;20050;-57
2021/05/12 12:28:44;;;;;;;9.93;4.53;;;;;;;;;;4925913;29;20047;-57
2021/05/12 12:31:14;;;;;;;11.23;4.03;;;;;;;;;;4921766;29;20140;-56
2021/05/12 12:33:41;;;;;;;8.35;4.18;;;;;;;;;;4906915;29;20052;-56
2021/05/12 12:36:09;;;;;;;6.38;4.57;;;;;;;;;;4923376;29;20408;-57
2021/05/12 12:38:47;;;;;;;11.55;4.53;;;;;;;;;;4923618;29;20569;-57
2021/05/12 12:41:15;;;;;;;15.65;4.55;;;;;;;;;;4926814;29;20046;-57
2021/05/12 12:43:42;;;;;;;12.05;4.55;;;;;;;;;;4925596;29;20126;-57
2021/05/12 12:46:08;;;;;;;7.03;4.32;;;;;;;;;;4923573;29;20446;-57
2021/05/12 12:48:36;;;;;;;10.45;4.25;;;;;;;;;;4926464;29;20075;-57
2021/05/12 12:51:03;;;;;;;8.63;4.73;;;;;;;;;;4920061;29;20091;-58
2021/05/12 12:53:33;;;;;;;9.57;4.15;;;;;;;;;;4923448;29;20308;-58
2021/05/12 12:56:07;;;;;;;13.07;4.67;;;;;;;;;;4927219;29;20043;-58
2021/05/12 12:58:34;;;;;;;11.32;4.35;;;;;;;;;;4930932;29;20059;-57
2021/05/12 13:01:00;;;;;;;7.53;4.32;;;;;;;;;;4921379;29;20047;-58
2021/05/12 13:03:28;;;;;;;9.05;4.53;;;;;;;;;;4922999;29;20056;-58
2021/05/12 13:05:59;;;;;;;10.40;4.50;;;;;;;;;;4924422;29;20047;-58
2021/05/12 13:08:29;;;;;;;13.25;4.43;;;;;;;;;;4927882;29;20044;-58
2021/05/12 13:11:05;;;;;;;7.25;4.35;;;;;;;;;;4927084;29;20099;-57
2021/05/12 13:13:35;;;;;;;7.03;4.38;;;;;;;;;;4928574;29;20055;-57
2021/05/12 13:16:22;;;;;;;8.48;4.55;;;;;;;;;;4916952;29;20162;-58
2021/05/12 13:18:50;;;;;;;12.75;5.03;;;;;;;;;;4925769;29;20505;-58
2021/05/12 13:21:17;;;;;;;8.05;4.85;;;;;;;;;;4926227;29;20108;-58
2021/05/12 13:23:54;;;;;;;14.35;4.78;;;;;;;;;;4926552;29;20082;-58
2021/05/12 13:26:25;;;;;;;15.48;5.00;;;;;;;;;;4923175;29;20099;-56
2021/05/12 13:28:51;;;;;;;10.68;4.60;;;;;;;;;;4924390;29;20044;-57
2021/05/12 13:31:18;;;;;;;10.10;5.30;;;;;;;;;;4923911;29;20063;-58
2021/05/12 13:33:50;;;;;;;9.40;5.10;;;;;;;;;;4918953;29;20052;-57
2021/05/12 13:36:17;;;;;;;9.27;4.55;;;;;;;;;;4925279;29;20056;-58
2021/05/12 13:38:44;;;;;;;12.35;5.22;;;;;;;;;;4922046;29;20140;-58
2021/05/12 13:41:10;;;;;;;11.38;5.25;;;;;;;;;;4920419;29;20051;-58
2021/05/12 13:43:37;;;;;;;11.20;4.87;;;;;;;;;;4924058;29;20831;-58
2021/05/12 13:46:03;;;;;;;9.20;5.30;;;;;;;;;;4921802;29;20052;-57
2021/05/12 13:48:31;;;;;;;11.80;5.13;;;;;;;;;;4927352;29;20056;-58
2021/05/12 13:50:59;;;;;;;9.00;5.30;;;;;;;;;;4928321;29;20107;-59
2021/05/12 13:53:39;;;;;;;11.63;5.13;;;;;;;;;;4925617;29;20048;-58
2021/05/12 13:56:20;;;;;;;11.68;4.90;;;;;;;;;;4925234;29;20453;-58
2021/05/12 13:59:05;;;;;;;13.00;5.05;;;;;;;;;;4931986;29;20055;-58
2021/05/12 14:04:01;;;;;;;12.32;4.90;;;;;;;;;;4929341;29;20091;-58
2021/05/12 14:06:30;;;;;;;12.02;5.18;;;;;;;;;;4926847;29;20516;-58
2021/05/12 14:09:05;;;;;;;9.65;5.10;;;;;;;;;;4927151;29;20569;-58
2021/05/12 14:11:34;;;;;;;10.32;5.03;;;;;;;;;;4930377;29;20040;-58
2021/05/12 14:14:10;;;;;;;13.93;5.07;;;;;;;;;;4926739;29;20127;-58
2021/05/12 14:17:01;;;;;;;10.73;5.38;;;;;;;;;;4924677;29;20055;-58
2021/05/12 14:19:29;;;;;;;12.75;4.60;;;;;;;;;;4930277;29;20408;-57
2021/05/12 14:21:57;;;;;;;12.70;4.70;;;;;;;;;;4929679;29;20078;-58
2021/05/12 14:24:30;;;;;;;9.30;5.13;;;;;;;;;;4928855;29;20055;-58
2021/05/12 14:27:00;;;;;;;13.30;4.55;;;;;;;;;;4929086;29;20134;-58
2021/05/12 14:29:37;;;;;;;8.25;4.20;;;;;;;;;;4927766;29;20043;-58
2021/05/12 14:32:07;;;;;;;7.03;4.18;;;;;;;;;;4925863;29;20397;-58
2021/05/12 14:34:34;;;;;;;10.02;4.43;;;;;;;;;;4931456;29;20051;-58
2021/05/12 14:37:01;;;;;;;8.35;4.57;;;;;;;;;;4929723;29;20092;-58
2021/05/12 14:39:34;;;;;;;10.82;5.13;;;;;;;;;;4929913;29;20103;-58
2021/05/12 14:42:01;;;;;;;12.70;4.70;;;;;;;;;;4927979;29;20055;-58
2021/05/12 14:44:28;;;;;;;9.52;4.40;;;;;;;;;;4924680;29;20111;-58
2021/05/12 14:46:56;;;;;;;12.02;4.72;;;;;;;;;;4927946;29;20126;-58
2021/05/12 14:49:24;;;;;;;7.00;3.63;;;;;;;;;;4923972;29;20048;-58
2021/05/12 14:52:05;;;;;;;8.70;4.13;;;;;;;;;;4913214;29;20052;-58
2021/05/12 14:54:40;;;;;;;15.68;4.10;;;;;;;;;;4928398;29;20052;-58
2021/05/12 14:57:23;;;;;;;10.65;3.65;;;;;;;;;;4927638;29;20126;-58
2021/05/12 15:00:03;;;;;;;4.82;3.40;;;;;;;;;;4925116;29;20047;-58
2021/05/12 15:02:46;;;;;;;5.60;3.75;;;;;;;;;;4930755;29;20047;-58
2021/05/12 15:05:28;;;;;;;5.78;3.70;;;;;;;;;;4928884;29;20516;-58
2021/05/12 15:07:56;;;;;;;8.75;3.70;;;;;;;;;;4925408;29;20096;-58
2021/05/12 15:10:26;;;;;;;6.97;3.60;;;;;;;;;;4927444;29;20044;-58